sensor_id;sensor_type;location;lat;lon;timestamp;P1;durP1;ratioP1;P2;durP2;ratioP2
15818;SDS011;8010;53.986;12.106;2023-09-19T00:00:59;3.23;;;1.47;;
15818;SDS011;8010;53.986;12.106;2023-09-19T00:03:24;1.30;;;1.10;;
15818;SDS011;8010;53.986;12.106;2023-09-19T00:05:50;1.57;;;1.30;;
15818;SDS011;8010;53.986;12.106;2023-09-19T00:08:16;1.90;;;1.00;;
15818;SDS011;8010;53.986;12.106;2023-09-19T00:10:42;1.10;;;1.00;;
15818;SDS011;8010;53.986;12.106;2023-09-19T00:13:08;1.60;;;1.00;;
15818;SDS011;8010;53.986;12.106;2023-09-19T00:15:38;0.80;;;0.80;;
15818;SDS011;8010;53.986;12.106;2023-09-19T00:18:05;1.63;;;1.13;;
15818;SDS011;8010;53.986;12.106;2023-09-19T00:20:32;1.57;;;1.13;;
15818;SDS011;8010;53.986;12.106;2023-09-19T00:22:59;2.20;;;0.90;;
15818;SDS011;8010;53.986;12.106;2023-09-19T00:25:30;4.10;;;1.00;;
15818;SDS011;8010;53.986;12.106;2023-09-19T00:27:57;1.13;;;0.77;;
15818;SDS011;8010;53.986;12.106;2023-09-19T00:30:23;1.60;;;0.80;;
15818;SDS011;8010;53.986;12.106;2023-09-19T00:32:49;1.40;;;1.00;;
15818;SDS011;8010;53.986;12.106;2023-09-19T00:35:19;1.00;;;0.80;;
15818;SDS011;8010;53.986;12.106;2023-09-19T00:37:46;1.00;;;0.83;;
15818;SDS011;8010;53.986;12.106;2023-09-19T00:40:11;1.93;;;1.13;;
15818;SDS011;8010;53.986;12.106;2023-09-19T00:42:39;3.93;;;1.00;;
15818;SDS011;8010;53.986;12.106;2023-09-19T00:45:06;1.10;;;0.80;;
15818;SDS011;8010;53.986;12.106;2023-09-19T00:47:42;0.87;;;0.70;;
15818;SDS011;8010;53.986;12.106;2023-09-19T00:50:10;2.83;;;1.07;;
15818;SDS011;8010;53.986;12.106;2023-09-19T00:52:39;1.10;;;0.60;;
15818;SDS011;8010;53.986;12.106;2023-09-19T00:55:07;3.50;;;0.80;;
15818;SDS011;8010;53.986;12.106;2023-09-19T00:57:34;1.73;;;0.67;;
15818;SDS011;8010;53.986;12.106;2023-09-19T01:00:02;1.47;;;0.77;;
15818;SDS011;8010;53.986;12.106;2023-09-19T01:02:32;3.70;;;0.80;;
15818;SDS011;8010;53.986;12.106;2023-09-19T01:04:58;0.83;;;0.67;;
15818;SDS011;8010;53.986;12.106;2023-09-19T01:07:25;1.57;;;0.60;;
15818;SDS011;8010;53.986;12.106;2023-09-19T01:09:51;1.73;;;0.83;;
15818;SDS011;8010;53.986;12.106;2023-09-19T01:12:22;1.27;;;0.67;;
15818;SDS011;8010;53.986;12.106;2023-09-19T01:15:06;1.67;;;0.90;;
15818;SDS011;8010;53.986;12.106;2023-09-19T01:17:57;2.00;;;0.87;;
15818;SDS011;8010;53.986;12.106;2023-09-19T01:23:36;0.63;;;0.60;;
15818;SDS011;8010;53.986;12.106;2023-09-19T01:26:18;2.17;;;0.73;;
15818;SDS011;8010;53.986;12.106;2023-09-19T01:31:38;3.47;;;1.00;;
15818;SDS011;8010;53.986;12.106;2023-09-19T01:34:07;1.83;;;0.90;;
15818;SDS011;8010;53.986;12.106;2023-09-19T01:36:37;2.53;;;0.83;;
15818;SDS011;8010;53.986;12.106;2023-09-19T01:39:07;2.43;;;0.80;;
15818;SDS011;8010;53.986;12.106;2023-09-19T01:41:41;1.60;;;1.07;;
15818;SDS011;8010;53.986;12.106;2023-09-19T01:44:22;1.53;;;0.80;;
15818;SDS011;8010;53.986;12.106;2023-09-19T01:47:02;2.37;;;1.30;;
15818;SDS011;8010;53.986;12.106;2023-09-19T01:49:44;0.80;;;0.73;;
15818;SDS011;8010;53.986;12.106;2023-09-19T01:52:31;2.00;;;0.80;;
15818;SDS011;8010;53.986;12.106;2023-09-19T01:55:06;2.13;;;1.03;;
15818;SDS011;8010;53.986;12.106;2023-09-19T01:57:35;2.57;;;1.00;;
15818;SDS011;8010;53.986;12.106;2023-09-19T02:00:10;3.43;;;1.13;;
15818;SDS011;8010;53.986;12.106;2023-09-19T02:02:38;3.23;;;1.10;;
15818;SDS011;8010;53.986;12.106;2023-09-19T02:05:05;1.93;;;1.00;;
15818;SDS011;8010;53.986;12.106;2023-09-19T02:07:31;3.37;;;1.30;;
15818;SDS011;8010;53.986;12.106;2023-09-19T02:09:58;2.30;;;1.17;;
15818;SDS011;8010;53.986;12.106;2023-09-19T02:12:27;3.10;;;1.27;;
15818;SDS011;8010;53.986;12.106;2023-09-19T02:14:52;2.43;;;1.00;;
15818;SDS011;8010;53.986;12.106;2023-09-19T02:17:18;1.53;;;0.90;;
15818;SDS011;8010;53.986;12.106;2023-09-19T02:19:44;3.93;;;1.20;;
15818;SDS011;8010;53.986;12.106;2023-09-19T02:22:09;1.80;;;1.07;;
15818;SDS011;8010;53.986;12.106;2023-09-19T02:24:35;1.53;;;0.97;;
15818;SDS011;8010;53.986;12.106;2023-09-19T02:27:02;3.67;;;1.23;;
15818;SDS011;8010;53.986;12.106;2023-09-19T02:29:29;2.93;;;1.23;;
15818;SDS011;8010;53.986;12.106;2023-09-19T02:31:55;1.47;;;1.03;;
15818;SDS011;8010;53.986;12.106;2023-09-19T02:34:21;3.37;;;1.20;;
15818;SDS011;8010;53.986;12.106;2023-09-19T02:36:47;2.27;;;1.40;;
15818;SDS011;8010;53.986;12.106;2023-09-19T02:39:12;1.73;;;0.87;;
15818;SDS011;8010;53.986;12.106;2023-09-19T02:41:38;2.90;;;1.20;;
15818;SDS011;8010;53.986;12.106;2023-09-19T02:44:03;2.27;;;1.30;;
15818;SDS011;8010;53.986;12.106;2023-09-19T02:46:32;3.47;;;1.23;;
15818;SDS011;8010;53.986;12.106;2023-09-19T02:48:58;2.80;;;1.20;;
15818;SDS011;8010;53.986;12.106;2023-09-19T02:51:24;1.47;;;1.27;;
15818;SDS011;8010;53.986;12.106;2023-09-19T02:53:50;3.00;;;1.50;;
15818;SDS011;8010;53.986;12.106;2023-09-19T02:56:17;4.50;;;1.50;;
15818;SDS011;8010;53.986;12.106;2023-09-19T02:58:43;3.07;;;1.40;;
15818;SDS011;8010;53.986;12.106;2023-09-19T03:01:12;1.43;;;1.33;;
15818;SDS011;8010;53.986;12.106;2023-09-19T03:03:37;2.67;;;1.40;;
15818;SDS011;8010;53.986;12.106;2023-09-19T03:06:05;5.20;;;1.40;;
15818;SDS011;8010;53.986;12.106;2023-09-19T03:08:33;2.70;;;1.50;;
15818;SDS011;8010;53.986;12.106;2023-09-19T03:11:01;2.87;;;1.40;;
15818;SDS011;8010;53.986;12.106;2023-09-19T03:13:28;1.73;;;1.40;;
15818;SDS011;8010;53.986;12.106;2023-09-19T03:15:56;2.17;;;1.33;;
15818;SDS011;8010;53.986;12.106;2023-09-19T03:18:23;4.23;;;1.63;;
15818;SDS011;8010;53.986;12.106;2023-09-19T03:20:57;4.40;;;1.43;;
15818;SDS011;8010;53.986;12.106;2023-09-19T03:23:26;2.03;;;1.50;;
15818;SDS011;8010;53.986;12.106;2023-09-19T03:25:52;2.83;;;1.30;;
15818;SDS011;8010;53.986;12.106;2023-09-19T03:28:21;2.47;;;1.43;;
15818;SDS011;8010;53.986;12.106;2023-09-19T03:30:59;3.20;;;1.50;;
15818;SDS011;8010;53.986;12.106;2023-09-19T03:33:26;3.60;;;1.67;;
15818;SDS011;8010;53.986;12.106;2023-09-19T03:35:52;4.03;;;1.67;;
15818;SDS011;8010;53.986;12.106;2023-09-19T03:38:18;3.00;;;1.43;;
15818;SDS011;8010;53.986;12.106;2023-09-19T03:40:44;3.40;;;1.30;;
15818;SDS011;8010;53.986;12.106;2023-09-19T03:43:10;3.43;;;1.73;;
15818;SDS011;8010;53.986;12.106;2023-09-19T03:45:35;3.40;;;1.53;;
15818;SDS011;8010;53.986;12.106;2023-09-19T03:48:06;3.87;;;1.70;;
15818;SDS011;8010;53.986;12.106;2023-09-19T03:50:36;6.10;;;1.60;;
15818;SDS011;8010;53.986;12.106;2023-09-19T03:53:02;2.00;;;1.60;;
15818;SDS011;8010;53.986;12.106;2023-09-19T03:55:28;2.13;;;1.73;;
15818;SDS011;8010;53.986;12.106;2023-09-19T03:57:57;2.87;;;1.50;;
15818;SDS011;8010;53.986;12.106;2023-09-19T04:00:23;4.47;;;1.63;;
15818;SDS011;8010;53.986;12.106;2023-09-19T04:02:51;4.57;;;1.80;;
15818;SDS011;8010;53.986;12.106;2023-09-19T04:05:17;3.63;;;1.60;;
15818;SDS011;8010;53.986;12.106;2023-09-19T04:07:44;2.97;;;1.70;;
15818;SDS011;8010;53.986;12.106;2023-09-19T04:10:09;3.43;;;1.90;;
15818;SDS011;8010;53.986;12.106;2023-09-19T04:12:39;2.70;;;1.70;;
15818;SDS011;8010;53.986;12.106;2023-09-19T04:15:05;3.17;;;1.80;;
15818;SDS011;8010;53.986;12.106;2023-09-19T04:17:31;5.07;;;1.50;;
15818;SDS011;8010;53.986;12.106;2023-09-19T04:19:58;1.70;;;1.60;;
15818;SDS011;8010;53.986;12.106;2023-09-19T04:22:24;4.13;;;2.03;;
15818;SDS011;8010;53.986;12.106;2023-09-19T04:24:49;4.67;;;2.20;;
15818;SDS011;8010;53.986;12.106;2023-09-19T04:27:15;2.80;;;2.00;;
15818;SDS011;8010;53.986;12.106;2023-09-19T04:29:41;3.47;;;2.07;;
15818;SDS011;8010;53.986;12.106;2023-09-19T04:32:06;3.93;;;1.93;;
15818;SDS011;8010;53.986;12.106;2023-09-19T04:34:32;2.43;;;1.90;;
15818;SDS011;8010;53.986;12.106;2023-09-19T04:36:59;2.70;;;1.70;;
15818;SDS011;8010;53.986;12.106;2023-09-19T04:39:25;2.47;;;1.83;;
15818;SDS011;8010;53.986;12.106;2023-09-19T04:41:51;4.10;;;2.30;;
15818;SDS011;8010;53.986;12.106;2023-09-19T04:44:18;2.63;;;1.80;;
15818;SDS011;8010;53.986;12.106;2023-09-19T04:46:43;4.17;;;1.90;;
15818;SDS011;8010;53.986;12.106;2023-09-19T04:49:10;3.90;;;1.93;;
15818;SDS011;8010;53.986;12.106;2023-09-19T04:51:36;4.70;;;2.30;;
15818;SDS011;8010;53.986;12.106;2023-09-19T04:54:01;3.03;;;1.80;;
15818;SDS011;8010;53.986;12.106;2023-09-19T04:56:27;4.23;;;2.43;;
15818;SDS011;8010;53.986;12.106;2023-09-19T04:58:57;4.23;;;2.00;;
15818;SDS011;8010;53.986;12.106;2023-09-19T05:01:23;3.70;;;2.03;;
15818;SDS011;8010;53.986;12.106;2023-09-19T05:03:49;4.30;;;2.10;;
15818;SDS011;8010;53.986;12.106;2023-09-19T05:06:18;2.47;;;2.10;;
15818;SDS011;8010;53.986;12.106;2023-09-19T05:08:46;4.30;;;2.03;;
15818;SDS011;8010;53.986;12.106;2023-09-19T05:11:15;3.70;;;1.90;;
15818;SDS011;8010;53.986;12.106;2023-09-19T05:13:40;5.90;;;2.20;;
15818;SDS011;8010;53.986;12.106;2023-09-19T05:16:06;4.90;;;2.10;;
15818;SDS011;8010;53.986;12.106;2023-09-19T05:18:35;3.73;;;2.13;;
15818;SDS011;8010;53.986;12.106;2023-09-19T05:21:02;4.60;;;2.03;;
15818;SDS011;8010;53.986;12.106;2023-09-19T05:23:28;4.93;;;2.20;;
15818;SDS011;8010;53.986;12.106;2023-09-19T05:25:53;4.73;;;2.30;;
15818;SDS011;8010;53.986;12.106;2023-09-19T05:28:19;3.97;;;2.17;;
15818;SDS011;8010;53.986;12.106;2023-09-19T05:30:45;4.00;;;1.80;;
15818;SDS011;8010;53.986;12.106;2023-09-19T05:33:12;2.70;;;1.80;;
15818;SDS011;8010;53.986;12.106;2023-09-19T05:35:38;3.10;;;1.87;;
15818;SDS011;8010;53.986;12.106;2023-09-19T05:38:04;3.97;;;1.90;;
15818;SDS011;8010;53.986;12.106;2023-09-19T05:40:33;2.93;;;1.67;;
15818;SDS011;8010;53.986;12.106;2023-09-19T05:43:00;3.70;;;2.07;;
15818;SDS011;8010;53.986;12.106;2023-09-19T05:45:25;2.67;;;1.90;;
15818;SDS011;8010;53.986;12.106;2023-09-19T05:47:52;2.13;;;1.80;;
15818;SDS011;8010;53.986;12.106;2023-09-19T05:50:26;3.17;;;1.80;;
15818;SDS011;8010;53.986;12.106;2023-09-19T05:52:52;4.47;;;2.10;;
15818;SDS011;8010;53.986;12.106;2023-09-19T05:55:18;4.57;;;2.20;;
15818;SDS011;8010;53.986;12.106;2023-09-19T05:57:49;4.77;;;2.10;;
15818;SDS011;8010;53.986;12.106;2023-09-19T06:00:16;4.13;;;2.37;;
15818;SDS011;8010;53.986;12.106;2023-09-19T06:02:43;2.30;;;1.80;;
15818;SDS011;8010;53.986;12.106;2023-09-19T06:05:09;4.70;;;1.70;;
15818;SDS011;8010;53.986;12.106;2023-09-19T06:07:35;3.40;;;1.40;;
15818;SDS011;8010;53.986;12.106;2023-09-19T06:10:05;4.07;;;1.97;;
15818;SDS011;8010;53.986;12.106;2023-09-19T06:12:38;3.17;;;1.27;;
15818;SDS011;8010;53.986;12.106;2023-09-19T06:15:04;4.87;;;2.03;;
15818;SDS011;8010;53.986;12.106;2023-09-19T06:17:33;4.60;;;1.40;;
15818;SDS011;8010;53.986;12.106;2023-09-19T06:20:02;3.30;;;1.20;;
15818;SDS011;8010;53.986;12.106;2023-09-19T06:22:37;3.50;;;1.23;;
15818;SDS011;8010;53.986;12.106;2023-09-19T06:25:03;2.60;;;1.43;;
15818;SDS011;8010;53.986;12.106;2023-09-19T06:27:29;3.67;;;1.30;;
15818;SDS011;8010;53.986;12.106;2023-09-19T06:29:54;5.63;;;1.33;;
15818;SDS011;8010;53.986;12.106;2023-09-19T06:32:26;2.30;;;1.00;;
15818;SDS011;8010;53.986;12.106;2023-09-19T06:34:52;2.73;;;1.23;;
15818;SDS011;8010;53.986;12.106;2023-09-19T06:37:19;6.20;;;1.80;;
15818;SDS011;8010;53.986;12.106;2023-09-19T06:39:46;1.50;;;1.10;;
15818;SDS011;8010;53.986;12.106;2023-09-19T06:42:13;2.40;;;0.97;;
15818;SDS011;8010;53.986;12.106;2023-09-19T06:44:38;3.40;;;0.93;;
15818;SDS011;8010;53.986;12.106;2023-09-19T06:47:04;2.53;;;0.90;;
15818;SDS011;8010;53.986;12.106;2023-09-19T06:49:31;2.77;;;1.30;;
15818;SDS011;8010;53.986;12.106;2023-09-19T06:51:57;2.73;;;1.00;;
15818;SDS011;8010;53.986;12.106;2023-09-19T06:54:24;2.43;;;1.10;;
15818;SDS011;8010;53.986;12.106;2023-09-19T06:56:49;3.57;;;1.50;;
15818;SDS011;8010;53.986;12.106;2023-09-19T06:59:15;3.57;;;0.90;;
15818;SDS011;8010;53.986;12.106;2023-09-19T07:01:41;3.17;;;1.00;;
15818;SDS011;8010;53.986;12.106;2023-09-19T07:04:09;3.70;;;1.40;;
15818;SDS011;8010;53.986;12.106;2023-09-19T07:06:35;4.63;;;1.00;;
15818;SDS011;8010;53.986;12.106;2023-09-19T07:09:00;3.67;;;1.10;;
15818;SDS011;8010;53.986;12.106;2023-09-19T07:11:26;2.50;;;1.13;;
15818;SDS011;8010;53.986;12.106;2023-09-19T07:13:51;6.20;;;1.67;;
15818;SDS011;8010;53.986;12.106;2023-09-19T07:16:17;4.70;;;1.30;;
15818;SDS011;8010;53.986;12.106;2023-09-19T07:18:52;4.37;;;1.00;;
15818;SDS011;8010;53.986;12.106;2023-09-19T07:21:20;4.63;;;1.10;;
15818;SDS011;8010;53.986;12.106;2023-09-19T07:23:46;3.53;;;1.17;;
15818;SDS011;8010;53.986;12.106;2023-09-19T07:26:12;7.93;;;1.37;;
15818;SDS011;8010;53.986;12.106;2023-09-19T07:28:38;4.70;;;1.97;;
15818;SDS011;8010;53.986;12.106;2023-09-19T07:31:03;2.93;;;0.70;;
15818;SDS011;8010;53.986;12.106;2023-09-19T07:33:30;6.03;;;1.00;;
15818;SDS011;8010;53.986;12.106;2023-09-19T07:35:56;2.87;;;0.87;;
15818;SDS011;8010;53.986;12.106;2023-09-19T07:38:21;3.47;;;1.33;;
15818;SDS011;8010;53.986;12.106;2023-09-19T07:40:47;3.77;;;1.00;;
15818;SDS011;8010;53.986;12.106;2023-09-19T07:43:13;5.93;;;1.50;;
15818;SDS011;8010;53.986;12.106;2023-09-19T07:45:39;2.80;;;0.90;;
15818;SDS011;8010;53.986;12.106;2023-09-19T07:48:04;6.87;;;1.00;;
15818;SDS011;8010;53.986;12.106;2023-09-19T07:50:33;2.83;;;0.90;;
15818;SDS011;8010;53.986;12.106;2023-09-19T07:53:01;4.17;;;1.07;;
15818;SDS011;8010;53.986;12.106;2023-09-19T07:55:29;4.50;;;1.07;;
15818;SDS011;8010;53.986;12.106;2023-09-19T07:57:55;3.27;;;0.87;;
15818;SDS011;8010;53.986;12.106;2023-09-19T08:00:21;3.77;;;0.90;;
15818;SDS011;8010;53.986;12.106;2023-09-19T08:02:46;4.53;;;1.40;;
15818;SDS011;8010;53.986;12.106;2023-09-19T08:05:13;2.70;;;0.93;;
15818;SDS011;8010;53.986;12.106;2023-09-19T08:07:42;3.37;;;0.90;;
15818;SDS011;8010;53.986;12.106;2023-09-19T08:10:10;3.43;;;0.70;;
15818;SDS011;8010;53.986;12.106;2023-09-19T08:12:40;3.50;;;1.10;;
15818;SDS011;8010;53.986;12.106;2023-09-19T08:15:20;4.07;;;1.27;;
15818;SDS011;8010;53.986;12.106;2023-09-19T08:17:46;4.10;;;1.40;;
15818;SDS011;8010;53.986;12.106;2023-09-19T08:20:12;3.30;;;1.10;;
15818;SDS011;8010;53.986;12.106;2023-09-19T08:22:51;4.43;;;1.07;;
15818;SDS011;8010;53.986;12.106;2023-09-19T08:25:19;5.40;;;1.40;;
15818;SDS011;8010;53.986;12.106;2023-09-19T08:27:46;3.23;;;1.10;;
15818;SDS011;8010;53.986;12.106;2023-09-19T08:30:13;4.77;;;1.87;;
15818;SDS011;8010;53.986;12.106;2023-09-19T08:32:40;7.67;;;1.17;;
15818;SDS011;8010;53.986;12.106;2023-09-19T08:35:07;3.57;;;1.20;;
15818;SDS011;8010;53.986;12.106;2023-09-19T08:37:34;4.87;;;1.43;;
15818;SDS011;8010;53.986;12.106;2023-09-19T08:40:00;1.70;;;0.83;;
15818;SDS011;8010;53.986;12.106;2023-09-19T08:42:25;4.40;;;1.10;;
15818;SDS011;8010;53.986;12.106;2023-09-19T08:44:52;3.03;;;0.90;;
15818;SDS011;8010;53.986;12.106;2023-09-19T08:47:21;2.10;;;0.80;;
15818;SDS011;8010;53.986;12.106;2023-09-19T08:50:04;2.90;;;1.30;;
15818;SDS011;8010;53.986;12.106;2023-09-19T08:52:41;3.10;;;1.30;;
15818;SDS011;8010;53.986;12.106;2023-09-19T08:55:09;3.43;;;1.47;;
15818;SDS011;8010;53.986;12.106;2023-09-19T08:57:37;4.13;;;1.37;;
15818;SDS011;8010;53.986;12.106;2023-09-19T09:00:08;4.67;;;1.10;;
15818;SDS011;8010;53.986;12.106;2023-09-19T09:02:39;4.23;;;0.93;;
15818;SDS011;8010;53.986;12.106;2023-09-19T09:05:07;5.03;;;1.20;;
15818;SDS011;8010;53.986;12.106;2023-09-19T09:07:34;3.40;;;1.20;;
15818;SDS011;8010;53.986;12.106;2023-09-19T09:10:05;6.63;;;1.97;;
15818;SDS011;8010;53.986;12.106;2023-09-19T09:12:31;2.30;;;0.90;;
15818;SDS011;8010;53.986;12.106;2023-09-19T09:15:01;4.63;;;1.27;;
15818;SDS011;8010;53.986;12.106;2023-09-19T09:17:28;4.83;;;1.47;;
15818;SDS011;8010;53.986;12.106;2023-09-19T09:19:54;5.00;;;1.40;;
15818;SDS011;8010;53.986;12.106;2023-09-19T09:22:20;3.53;;;1.00;;
15818;SDS011;8010;53.986;12.106;2023-09-19T09:27:19;4.47;;;1.33;;
15818;SDS011;8010;53.986;12.106;2023-09-19T09:29:46;4.03;;;1.37;;
15818;SDS011;8010;53.986;12.106;2023-09-19T09:32:25;5.23;;;1.30;;
15818;SDS011;8010;53.986;12.106;2023-09-19T09:34:57;5.60;;;1.43;;
15818;SDS011;8010;53.986;12.106;2023-09-19T09:37:24;5.00;;;1.87;;
15818;SDS011;8010;53.986;12.106;2023-09-19T09:39:58;3.97;;;1.20;;
15818;SDS011;8010;53.986;12.106;2023-09-19T09:42:43;2.67;;;1.10;;
15818;SDS011;8010;53.986;12.106;2023-09-19T09:45:18;3.20;;;0.97;;
15818;SDS011;8010;53.986;12.106;2023-09-19T09:47:59;5.33;;;1.40;;
15818;SDS011;8010;53.986;12.106;2023-09-19T09:50:31;3.50;;;1.33;;
15818;SDS011;8010;53.986;12.106;2023-09-19T09:53:19;4.37;;;1.47;;
15818;SDS011;8010;53.986;12.106;2023-09-19T09:58:35;4.87;;;1.70;;
15818;SDS011;8010;53.986;12.106;2023-09-19T10:01:02;2.43;;;1.33;;
15818;SDS011;8010;53.986;12.106;2023-09-19T10:03:40;6.93;;;1.83;;
15818;SDS011;8010;53.986;12.106;2023-09-19T10:06:14;5.43;;;1.13;;
15818;SDS011;8010;53.986;12.106;2023-09-19T10:09:06;4.63;;;1.20;;
15818;SDS011;8010;53.986;12.106;2023-09-19T10:11:38;4.63;;;1.27;;
15818;SDS011;8010;53.986;12.106;2023-09-19T10:14:07;3.67;;;1.23;;
15818;SDS011;8010;53.986;12.106;2023-09-19T10:16:35;6.30;;;1.33;;
15818;SDS011;8010;53.986;12.106;2023-09-19T10:19:11;5.87;;;1.53;;
15818;SDS011;8010;53.986;12.106;2023-09-19T10:21:53;5.87;;;1.43;;
15818;SDS011;8010;53.986;12.106;2023-09-19T10:24:21;4.60;;;1.40;;
15818;SDS011;8010;53.986;12.106;2023-09-19T10:26:48;4.20;;;1.40;;
15818;SDS011;8010;53.986;12.106;2023-09-19T10:29:15;5.87;;;1.80;;
15818;SDS011;8010;53.986;12.106;2023-09-19T10:31:43;4.50;;;2.13;;
15818;SDS011;8010;53.986;12.106;2023-09-19T10:34:13;2.80;;;1.13;;
15818;SDS011;8010;53.986;12.106;2023-09-19T10:36:39;4.67;;;1.40;;
15818;SDS011;8010;53.986;12.106;2023-09-19T10:39:10;2.43;;;1.10;;
15818;SDS011;8010;53.986;12.106;2023-09-19T10:41:40;3.53;;;1.23;;
15818;SDS011;8010;53.986;12.106;2023-09-19T10:44:05;4.97;;;1.37;;
15818;SDS011;8010;53.986;12.106;2023-09-19T10:46:32;5.27;;;1.40;;
15818;SDS011;8010;53.986;12.106;2023-09-19T10:49:01;5.43;;;1.27;;
15818;SDS011;8010;53.986;12.106;2023-09-19T10:51:38;2.43;;;1.00;;
15818;SDS011;8010;53.986;12.106;2023-09-19T10:54:06;5.30;;;1.30;;
15818;SDS011;8010;53.986;12.106;2023-09-19T10:56:44;4.60;;;1.30;;
15818;SDS011;8010;53.986;12.106;2023-09-19T10:59:17;4.53;;;1.17;;
15818;SDS011;8010;53.986;12.106;2023-09-19T11:01:51;5.27;;;1.20;;
15818;SDS011;8010;53.986;12.106;2023-09-19T11:07:08;3.93;;;1.23;;
15818;SDS011;8010;53.986;12.106;2023-09-19T11:09:50;3.17;;;1.03;;
15818;SDS011;8010;53.986;12.106;2023-09-19T11:14:54;7.97;;;1.07;;
15818;SDS011;8010;53.986;12.106;2023-09-19T11:30:37;5.03;;;1.43;;
15818;SDS011;8010;53.986;12.106;2023-09-19T11:41:36;5.30;;;1.40;;
15818;SDS011;8010;53.986;12.106;2023-09-19T11:46:33;6.70;;;2.30;;
15818;SDS011;8010;53.986;12.106;2023-09-19T11:49:08;3.40;;;1.10;;
15818;SDS011;8010;53.986;12.106;2023-09-19T11:51:45;2.67;;;1.23;;
15818;SDS011;8010;53.986;12.106;2023-09-19T11:54:13;5.40;;;1.47;;
15818;SDS011;8010;53.986;12.106;2023-09-19T11:56:48;4.77;;;1.30;;
15818;SDS011;8010;53.986;12.106;2023-09-19T11:59:21;5.17;;;1.10;;
15818;SDS011;8010;53.986;12.106;2023-09-19T12:01:54;5.57;;;1.47;;
15818;SDS011;8010;53.986;12.106;2023-09-19T12:04:34;1.80;;;0.80;;
15818;SDS011;8010;53.986;12.106;2023-09-19T12:07:07;6.67;;;1.33;;
15818;SDS011;8010;53.986;12.106;2023-09-19T12:09:40;5.23;;;1.87;;
15818;SDS011;8010;53.986;12.106;2023-09-19T12:12:19;5.00;;;1.10;;
15818;SDS011;8010;53.986;12.106;2023-09-19T12:14:48;6.70;;;1.10;;
15818;SDS011;8010;53.986;12.106;2023-09-19T12:17:18;2.87;;;0.90;;
15818;SDS011;8010;53.986;12.106;2023-09-19T12:19:51;3.73;;;1.07;;
15818;SDS011;8010;53.986;12.106;2023-09-19T12:22:17;4.87;;;0.80;;
15818;SDS011;8010;53.986;12.106;2023-09-19T12:24:45;2.60;;;0.87;;
15818;SDS011;8010;53.986;12.106;2023-09-19T12:27:11;5.23;;;1.33;;
15818;SDS011;8010;53.986;12.106;2023-09-19T12:29:42;2.77;;;1.10;;
15818;SDS011;8010;53.986;12.106;2023-09-19T12:32:13;4.57;;;1.33;;
15818;SDS011;8010;53.986;12.106;2023-09-19T12:34:41;5.30;;;1.43;;
15818;SDS011;8010;53.986;12.106;2023-09-19T12:37:14;4.67;;;1.33;;
15818;SDS011;8010;53.986;12.106;2023-09-19T12:39:47;2.47;;;1.00;;
15818;SDS011;8010;53.986;12.106;2023-09-19T12:42:16;8.40;;;1.40;;
15818;SDS011;8010;53.986;12.106;2023-09-19T12:44:47;5.97;;;1.33;;
15818;SDS011;8010;53.986;12.106;2023-09-19T12:47:17;4.23;;;1.00;;
15818;SDS011;8010;53.986;12.106;2023-09-19T12:52:44;2.17;;;0.90;;
15818;SDS011;8010;53.986;12.106;2023-09-19T12:55:21;4.00;;;1.20;;
15818;SDS011;8010;53.986;12.106;2023-09-19T13:00:41;3.17;;;1.10;;
15818;SDS011;8010;53.986;12.106;2023-09-19T13:03:19;3.23;;;1.27;;
15818;SDS011;8010;53.986;12.106;2023-09-19T13:06:00;5.00;;;1.27;;
15818;SDS011;8010;53.986;12.106;2023-09-19T13:08:37;6.67;;;1.57;;
15818;SDS011;8010;53.986;12.106;2023-09-19T13:11:17;8.13;;;2.07;;
15818;SDS011;8010;53.986;12.106;2023-09-19T13:16:13;1.63;;;0.90;;
15818;SDS011;8010;53.986;12.106;2023-09-19T13:18:47;5.57;;;0.90;;
15818;SDS011;8010;53.986;12.106;2023-09-19T13:21:27;4.17;;;1.07;;
15818;SDS011;8010;53.986;12.106;2023-09-19T13:24:18;2.40;;;1.00;;
15818;SDS011;8010;53.986;12.106;2023-09-19T13:26:45;3.10;;;1.10;;
15818;SDS011;8010;53.986;12.106;2023-09-19T13:29:11;5.23;;;1.23;;
15818;SDS011;8010;53.986;12.106;2023-09-19T13:31:37;5.20;;;1.10;;
15818;SDS011;8010;53.986;12.106;2023-09-19T13:34:06;4.00;;;1.00;;
15818;SDS011;8010;53.986;12.106;2023-09-19T13:36:32;3.87;;;1.30;;
15818;SDS011;8010;53.986;12.106;2023-09-19T13:38:58;4.90;;;1.10;;
15818;SDS011;8010;53.986;12.106;2023-09-19T13:41:25;3.77;;;1.40;;
15818;SDS011;8010;53.986;12.106;2023-09-19T13:43:51;4.47;;;1.43;;
15818;SDS011;8010;53.986;12.106;2023-09-19T13:46:17;5.33;;;0.90;;
15818;SDS011;8010;53.986;12.106;2023-09-19T13:48:50;4.13;;;1.53;;
15818;SDS011;8010;53.986;12.106;2023-09-19T13:51:17;2.07;;;1.00;;
15818;SDS011;8010;53.986;12.106;2023-09-19T13:53:44;4.23;;;1.30;;
15818;SDS011;8010;53.986;12.106;2023-09-19T13:56:09;3.93;;;0.80;;
15818;SDS011;8010;53.986;12.106;2023-09-19T13:58:36;3.33;;;0.90;;
15818;SDS011;8010;53.986;12.106;2023-09-19T14:01:01;6.27;;;1.53;;
15818;SDS011;8010;53.986;12.106;2023-09-19T14:03:28;7.00;;;1.27;;
15818;SDS011;8010;53.986;12.106;2023-09-19T14:05:53;6.03;;;1.30;;
15818;SDS011;8010;53.986;12.106;2023-09-19T14:08:19;6.30;;;1.53;;
15818;SDS011;8010;53.986;12.106;2023-09-19T14:10:45;6.40;;;1.60;;
15818;SDS011;8010;53.986;12.106;2023-09-19T14:13:10;4.73;;;1.30;;
15818;SDS011;8010;53.986;12.106;2023-09-19T14:15:38;3.47;;;1.10;;
15818;SDS011;8010;53.986;12.106;2023-09-19T14:18:04;2.53;;;0.93;;
15818;SDS011;8010;53.986;12.106;2023-09-19T14:20:29;2.47;;;1.10;;
15818;SDS011;8010;53.986;12.106;2023-09-19T14:22:56;4.33;;;0.97;;
15818;SDS011;8010;53.986;12.106;2023-09-19T14:25:23;3.20;;;1.00;;
15818;SDS011;8010;53.986;12.106;2023-09-19T14:27:50;6.60;;;1.50;;
15818;SDS011;8010;53.986;12.106;2023-09-19T14:30:15;2.33;;;1.20;;
15818;SDS011;8010;53.986;12.106;2023-09-19T14:32:41;2.87;;;1.30;;
15818;SDS011;8010;53.986;12.106;2023-09-19T14:35:07;3.10;;;0.97;;
15818;SDS011;8010;53.986;12.106;2023-09-19T14:37:34;5.70;;;1.47;;
15818;SDS011;8010;53.986;12.106;2023-09-19T14:40:00;4.20;;;1.20;;
15818;SDS011;8010;53.986;12.106;2023-09-19T14:42:28;3.23;;;1.30;;
15818;SDS011;8010;53.986;12.106;2023-09-19T14:44:53;5.37;;;1.17;;
15818;SDS011;8010;53.986;12.106;2023-09-19T14:47:19;2.67;;;1.30;;
15818;SDS011;8010;53.986;12.106;2023-09-19T14:49:44;4.60;;;1.40;;
15818;SDS011;8010;53.986;12.106;2023-09-19T14:52:11;5.60;;;1.50;;
15818;SDS011;8010;53.986;12.106;2023-09-19T14:54:40;5.10;;;1.30;;
15818;SDS011;8010;53.986;12.106;2023-09-19T14:57:06;7.27;;;1.60;;
15818;SDS011;8010;53.986;12.106;2023-09-19T14:59:33;5.03;;;1.30;;
15818;SDS011;8010;53.986;12.106;2023-09-19T15:02:03;6.37;;;1.50;;
15818;SDS011;8010;53.986;12.106;2023-09-19T15:04:29;4.57;;;1.40;;
15818;SDS011;8010;53.986;12.106;2023-09-19T15:06:55;3.70;;;1.30;;
15818;SDS011;8010;53.986;12.106;2023-09-19T15:09:21;4.10;;;1.07;;
15818;SDS011;8010;53.986;12.106;2023-09-19T15:11:49;4.23;;;1.47;;
15818;SDS011;8010;53.986;12.106;2023-09-19T15:14:14;2.77;;;1.40;;
15818;SDS011;8010;53.986;12.106;2023-09-19T15:16:40;3.97;;;1.23;;
15818;SDS011;8010;53.986;12.106;2023-09-19T15:19:08;4.97;;;1.50;;
15818;SDS011;8010;53.986;12.106;2023-09-19T15:21:35;5.63;;;1.60;;
15818;SDS011;8010;53.986;12.106;2023-09-19T15:24:02;3.67;;;1.60;;
15818;SDS011;8010;53.986;12.106;2023-09-19T15:26:28;3.47;;;1.30;;
15818;SDS011;8010;53.986;12.106;2023-09-19T15:28:55;7.07;;;1.70;;
15818;SDS011;8010;53.986;12.106;2023-09-19T15:31:21;5.90;;;1.63;;
15818;SDS011;8010;53.986;12.106;2023-09-19T15:33:47;4.03;;;2.13;;
15818;SDS011;8010;53.986;12.106;2023-09-19T15:36:13;4.93;;;1.70;;
15818;SDS011;8010;53.986;12.106;2023-09-19T15:41:22;5.57;;;1.70;;
15818;SDS011;8010;53.986;12.106;2023-09-19T15:43:48;3.37;;;1.30;;
15818;SDS011;8010;53.986;12.106;2023-09-19T15:46:13;2.47;;;1.40;;
15818;SDS011;8010;53.986;12.106;2023-09-19T15:48:40;3.87;;;1.50;;